createdAt,value
2023-02-18T00:02:04.331Z,99050.06
2023-02-18T00:04:35.138Z,99053.62
2023-02-18T00:07:05.050Z,99061.49
2023-02-18T00:09:37.225Z,99057.08
2023-02-18T00:12:09.945Z,99051.62
2023-02-18T00:14:40.175Z,99047.24
2023-02-18T00:17:10.062Z,99052.70
2023-02-18T00:19:39.922Z,99056.78
2023-02-18T00:22:09.912Z,99056.78
2023-02-18T00:24:42.552Z,99060.53
2023-02-18T00:27:12.418Z,99058.88
2023-02-18T00:29:43.696Z,99054.70
2023-02-18T00:32:13.696Z,99054.93
2023-02-18T00:34:52.005Z,99055.44
2023-02-18T00:37:21.985Z,99055.34
2023-02-18T00:39:51.823Z,99061.84
2023-02-18T00:42:21.676Z,99059.12
2023-02-18T00:44:53.927Z,99049.30
2023-02-18T00:47:25.304Z,99055.77
2023-02-18T00:49:55.131Z,99057.13
2023-02-18T00:52:27.457Z,99056.60
2023-02-18T00:55:01.606Z,99058.50
2023-02-18T00:57:32.276Z,99067.20
2023-02-18T01:00:04.674Z,99064.17
2023-02-18T01:02:34.569Z,99056.20
2023-02-18T01:05:04.653Z,99055.08
2023-02-18T01:07:34.720Z,99056.11
2023-02-18T01:10:07.170Z,99063.16
2023-02-18T01:12:37.134Z,99070.46
2023-02-18T01:15:08.628Z,99057.91
2023-02-18T01:17:38.487Z,99071.23
2023-02-18T01:20:09.265Z,99077.27
2023-02-18T01:22:40.529Z,99074.34
2023-02-18T01:25:10.577Z,99072.45
2023-02-18T01:27:40.514Z,99080.42
2023-02-18T01:30:14.338Z,99080.95
2023-02-18T01:32:44.459Z,99084.70
2023-02-18T01:35:15.693Z,99087.77
2023-02-18T01:37:46.241Z,99087.53
2023-02-18T01:40:17.238Z,99086.16
2023-02-18T01:42:49.384Z,99090.78
2023-02-18T01:45:40.103Z,99090.88
2023-02-18T01:48:23.971Z,99089.52
2023-02-18T01:51:17.977Z,99090.65
2023-02-18T01:54:00.108Z,99092.97
2023-02-18T01:56:37.291Z,99093.56
2023-02-18T01:59:10.416Z,99087.08
2023-02-18T02:01:42.750Z,99085.19
2023-02-18T02:04:15.042Z,99084.98
2023-02-18T02:06:45.754Z,99081.73
2023-02-18T02:09:22.680Z,99083.92
2023-02-18T02:11:56.066Z,99089.38
2023-02-18T02:18:02.685Z,99088.11
2023-02-18T02:20:59.143Z,99095.31
2023-02-18T02:23:46.416Z,99096.47
2023-02-18T02:26:36.645Z,99102.75
2023-02-18T02:29:25.119Z,99104.31
2023-02-18T02:32:21.309Z,99104.02
2023-02-18T02:34:59.275Z,99103.72
2023-02-18T02:37:57.503Z,99092.82
2023-02-18T02:40:52.859Z,99094.48
2023-02-18T02:43:44.314Z,99105.67
2023-02-18T02:46:22.488Z,99098.57
2023-02-18T02:49:06.930Z,99098.03
2023-02-18T02:51:47.481Z,99113.98
2023-02-18T02:54:22.443Z,99113.59
2023-02-18T02:56:55.360Z,99116.31
2023-02-18T02:59:34.590Z,99119.04
2023-02-18T03:02:31.710Z,99115.78
2023-02-18T03:05:14.974Z,99120.07
2023-02-18T03:07:59.532Z,99118.94
2023-02-18T03:10:56.168Z,99120.20
2023-02-18T03:13:58.541Z,99116.45
2023-02-18T03:16:41.993Z,99117.28
2023-02-18T03:19:34.696Z,99114.56
2023-02-18T03:22:24.356Z,99112.97
2023-02-18T03:24:56.786Z,99109.95
2023-02-18T03:27:29.820Z,99109.31
2023-02-18T03:30:10.397Z,99113.53
2023-02-18T03:32:40.333Z,99112.27
2023-02-18T03:35:21.888Z,99121.61
2023-02-18T03:38:07.880Z,99122.14
2023-02-18T03:40:43.045Z,99122.44
2023-02-18T03:43:26.854Z,99125.45
2023-02-18T03:45:57.644Z,99132.59
2023-02-18T03:48:29.163Z,99129.02
2023-02-18T03:51:03.192Z,99130.80
2023-02-18T03:53:34.508Z,99138.14
2023-02-18T03:56:13.015Z,99137.11
2023-02-18T03:58:48.967Z,99130.61
2023-02-18T04:01:22.071Z,99128.81
2023-02-18T04:03:52.057Z,99120.44
2023-02-18T04:06:22.936Z,99125.03
2023-02-18T04:09:02.616Z,99128.81
2023-02-18T04:11:35.026Z,99114.89
2023-02-18T04:14:21.675Z,99126.52
2023-02-18T04:16:55.278Z,99128.18
2023-02-18T04:19:25.108Z,99130.30
2023-02-18T04:21:56.571Z,99132.17
2023-02-18T04:24:28.358Z,99132.70
2023-02-18T04:27:05.905Z,99135.55
2023-02-18T04:29:38.126Z,99137.95
2023-02-18T04:32:10.510Z,99141.09
2023-02-18T04:34:40.464Z,99134.52
2023-02-18T04:37:12.657Z,99133.66
2023-02-18T04:39:42.673Z,99131.70
2023-02-18T04:42:12.546Z,99134.31
2023-02-18T04:44:42.401Z,99132.75
2023-02-18T04:47:14.409Z,99124.25
2023-02-18T04:49:44.294Z,99121.83
2023-02-18T04:52:14.172Z,99121.83
2023-02-18T04:54:44.214Z,99116.81
2023-02-18T04:57:14.133Z,99120.59
2023-02-18T04:59:44.018Z,99114.22
2023-02-18T05:02:13.941Z,99116.11
2023-02-18T05:04:45.906Z,99108.34
2023-02-18T05:07:20.331Z,99107.94
2023-02-18T05:09:50.296Z,99109.19
2023-02-18T05:12:20.147Z,99098.53
2023-02-18T05:14:50.777Z,99099.27
2023-02-18T05:17:20.725Z,99104.38
2023-02-18T05:19:50.600Z,99096.33
2023-02-18T05:22:21.893Z,99109.00
2023-02-18T05:24:53.426Z,99107.31
2023-02-18T05:27:23.836Z,99115.17
2023-02-18T05:29:54.001Z,99119.98
2023-02-18T05:32:23.921Z,99121.56
2023-02-18T05:34:55.018Z,99128.27
2023-02-18T05:37:25.531Z,99124.91
2023-02-18T05:39:56.240Z,99124.27
2023-02-18T05:42:27.465Z,99122.30
2023-02-18T05:44:58.665Z,99128.47
2023-02-18T05:47:28.783Z,99122.69
2023-02-18T05:49:59.798Z,99111.10
2023-02-18T05:52:30.872Z,99119.79
2023-02-18T05:55:01.915Z,99115.08
2023-02-18T05:57:31.910Z,99122.07
2023-02-18T06:00:02.655Z,99118.61
2023-02-18T06:02:34.542Z,99129.70
2023-02-18T06:05:04.454Z,99132.95
2023-02-18T06:07:34.305Z,99122.16
2023-02-18T06:10:04.245Z,99124.77
2023-02-18T06:12:34.181Z,99119.45
2023-02-18T06:15:06.280Z,99128.33
2023-02-18T06:17:36.202Z,99138.04
2023-02-18T06:20:06.183Z,99138.15
2023-02-18T06:22:36.042Z,99142.61
2023-02-18T06:25:05.953Z,99138.95
2023-02-18T06:27:35.819Z,99146.66
2023-02-18T06:30:05.856Z,99145.72
2023-02-18T06:32:35.827Z,99144.88
2023-02-18T06:35:05.649Z,99140.05
2023-02-18T06:37:35.976Z,99145.38
2023-02-18T06:40:06.073Z,99140.58
2023-02-18T06:42:36.078Z,99134.31
2023-02-18T06:45:07.439Z,99127.90
2023-02-18T06:47:37.369Z,99130.50
2023-02-18T06:50:07.971Z,99121.41
2023-02-18T06:52:40.997Z,99129.78
2023-02-18T06:55:10.965Z,99120.16
2023-02-18T06:57:40.770Z,99120.34
2023-02-18T07:00:11.312Z,99122.11
2023-02-18T07:02:42.653Z,99126.41
2023-02-18T07:05:12.507Z,99119.70
2023-02-18T07:07:42.347Z,99122.30
2023-02-18T07:10:12.472Z,99116.75
2023-02-18T07:12:42.333Z,99105.77
2023-02-18T07:15:12.480Z,99101.58
2023-02-18T07:17:42.357Z,99106.06
2023-02-18T07:20:12.294Z,99105.23
2023-02-18T07:22:42.141Z,99102.39
2023-02-18T07:25:12.075Z,99095.80
2023-02-18T07:27:41.927Z,99083.16
2023-02-18T07:30:12.107Z,99081.38
2023-02-18T07:32:42.069Z,99076.84
2023-02-18T07:35:12.849Z,99061.83
2023-02-18T07:37:46.149Z,99061.19
2023-02-18T07:40:17.167Z,99063.26
2023-02-18T07:42:47.005Z,99052.25
2023-02-18T07:45:16.866Z,99051.61
2023-02-18T07:47:47.060Z,99057.14
2023-02-18T07:50:17.126Z,99051.78
2023-02-18T07:52:47.000Z,99058.38
2023-02-18T07:55:16.977Z,99064.64
2023-02-18T07:57:58.801Z,99072.26
2023-02-18T08:00:29.127Z,99067.47
2023-02-18T08:03:00.253Z,99073.02
2023-02-18T08:05:31.299Z,99064.05
2023-02-18T08:08:02.300Z,99057.56
2023-02-18T08:10:32.418Z,99068.34
2023-02-18T08:13:03.409Z,99065.97
2023-02-18T08:15:33.429Z,99067.00
2023-02-18T08:18:03.678Z,99067.48
2023-02-18T08:20:33.535Z,99063.90
2023-02-18T08:23:03.417Z,99062.39
2023-02-18T08:25:33.617Z,99059.19
2023-02-18T08:28:03.463Z,99054.77
2023-02-18T08:30:33.580Z,99052.55
2023-02-18T08:33:04.051Z,99052.47
2023-02-18T08:35:33.889Z,99049.53
2023-02-18T08:38:03.752Z,99039.91
2023-02-18T08:40:33.654Z,99035.53
2023-02-18T08:43:03.511Z,99042.85
2023-02-18T08:45:35.797Z,99029.77
2023-02-18T08:48:17.766Z,99023.73
2023-02-18T08:50:36.824Z,99024.75
2023-02-18T08:53:06.742Z,99026.11
2023-02-18T08:55:37.918Z,99025.87
2023-02-18T08:58:07.916Z,99015.77
2023-02-18T09:00:38.031Z,99012.19
2023-02-18T09:03:08.027Z,99008.98
2023-02-18T09:05:37.872Z,99002.69
2023-02-18T09:08:07.775Z,99006.98
2023-02-18T09:10:37.659Z,99012.10
2023-02-18T09:13:07.508Z,99018.89
2023-02-18T09:15:37.564Z,99018.36
2023-02-18T09:18:07.543Z,99018.67
2023-02-18T09:20:37.384Z,99016.59
2023-02-18T09:23:07.427Z,99012.95
2023-02-18T09:25:37.350Z,99010.57
2023-02-18T09:28:09.347Z,99012.76
2023-02-18T09:30:40.811Z,99007.45
2023-02-18T09:33:10.756Z,99009.11
2023-02-18T09:35:44.255Z,99004.31
2023-02-18T09:38:14.516Z,98992.41
2023-02-18T09:40:52.381Z,98990.64
2023-02-18T09:43:33.593Z,98975.85
2023-02-18T09:46:04.373Z,98972.95
2023-02-18T09:48:35.328Z,98964.27
2023-02-18T09:51:05.162Z,98958.95
2023-02-18T09:53:34.980Z,98955.19
2023-02-18T09:56:04.872Z,98946.32
2023-02-18T09:58:34.815Z,98936.63
2023-02-18T10:01:07.738Z,98937.76
2023-02-18T10:03:37.897Z,98927.23
2023-02-18T10:06:11.547Z,98929.20
2023-02-18T10:08:45.743Z,98928.77
2023-02-18T10:11:17.780Z,98925.04
2023-02-18T10:13:47.760Z,98929.41
2023-02-18T10:16:19.638Z,98918.02
2023-02-18T10:18:53.711Z,98919.19
2023-02-18T10:21:26.391Z,98923.56
2023-02-18T10:24:07.693Z,98927.75
2023-02-18T10:26:39.235Z,98927.55
2023-02-18T10:29:18.694Z,98930.91
2023-02-18T10:32:03.170Z,98919.81
2023-02-18T10:34:43.377Z,98919.92
2023-02-18T10:37:24.974Z,98912.07
2023-02-18T10:40:03.121Z,98915.66
2023-02-18T10:42:57.123Z,98917.02
2023-02-18T10:45:32.492Z,98920.22
2023-02-18T10:48:11.159Z,98911.87
2023-02-18T10:50:42.929Z,98895.16
2023-02-18T10:53:27.174Z,98910.33
2023-02-18T10:55:57.631Z,98907.72
2023-02-18T10:58:47.784Z,98897.26
2023-02-18T11:01:19.412Z,98888.98
2023-02-18T11:03:50.606Z,98896.11
2023-02-18T11:06:29.285Z,98891.31
2023-02-18T11:08:59.654Z,98899.46
2023-02-18T11:11:38.131Z,98903.61
2023-02-18T11:14:09.145Z,98896.92
2023-02-18T11:16:41.351Z,98897.89
2023-02-18T11:19:39.240Z,98894.75
2023-02-18T11:22:17.944Z,98904.36
2023-02-18T11:24:49.150Z,98903.83
2023-02-18T11:27:30.667Z,98916.06
2023-02-18T11:30:06.078Z,98920.55
2023-02-18T11:32:37.074Z,98926.61
2023-02-18T11:35:07.206Z,98930.66
2023-02-18T11:37:37.262Z,98930.24
2023-02-18T11:40:07.863Z,98928.48
2023-02-18T11:42:37.801Z,98922.33
2023-02-18T11:45:08.006Z,98919.70
2023-02-18T11:47:38.462Z,98920.87
2023-02-18T11:50:14.389Z,98925.34
2023-02-18T11:52:46.734Z,98918.55
2023-02-18T11:55:33.445Z,98926.05
2023-02-18T11:58:06.276Z,98925.95
2023-02-18T12:00:47.001Z,98916.53
2023-02-18T12:03:40.556Z,98913.09
2023-02-18T12:06:22.444Z,98923.10
2023-02-18T12:08:54.517Z,98919.66
2023-02-18T12:11:29.941Z,98920.88
2023-02-18T12:14:00.888Z,98910.83
2023-02-18T12:16:48.985Z,98927.25
2023-02-18T12:19:32.534Z,98922.14
2023-02-18T12:22:26.788Z,98925.16
2023-02-18T12:25:24.895Z,98933.95
2023-02-18T12:28:15.478Z,98922.53
2023-02-18T12:31:02.957Z,98917.30
2023-02-18T12:33:53.865Z,98913.02
2023-02-18T12:36:35.135Z,98911.66
2023-02-18T12:39:19.736Z,98911.98
2023-02-18T12:41:54.974Z,98909.27
2023-02-18T12:44:33.152Z,98909.27
2023-02-18T12:47:25.776Z,98913.98
2023-02-18T12:50:04.174Z,98915.63
2023-02-18T12:52:52.483Z,98922.97
2023-02-18T12:55:25.065Z,98912.52
2023-02-18T12:58:00.245Z,98917.42
2023-02-18T13:00:48.803Z,98915.53
2023-02-18T13:03:47.128Z,98908.83
2023-02-18T13:06:37.916Z,98909.76
2023-02-18T13:09:27.076Z,98897.81
2023-02-18T13:12:18.071Z,98898.67
2023-02-18T13:15:05.456Z,98898.23
2023-02-18T13:17:37.244Z,98906.41
2023-02-18T13:20:18.642Z,98915.49
2023-02-18T13:22:49.906Z,98911.70
2023-02-18T13:25:19.986Z,98920.30
2023-02-18T13:28:08.993Z,98922.25
2023-02-18T13:30:59.769Z,98930.75
2023-02-18T13:33:40.713Z,98935.13
2023-02-18T13:36:42.036Z,98926.96
2023-02-18T13:39:12.168Z,98929.48
2023-02-18T13:41:43.213Z,98922.77
2023-02-18T13:44:27.793Z,98921.18
2023-02-18T13:46:58.546Z,98925.06
2023-02-18T13:49:31.118Z,98934.25
2023-02-18T13:52:01.976Z,98938.97
2023-02-18T13:54:34.024Z,98933.81
2023-02-18T13:57:08.821Z,98932.46
2023-02-18T13:59:40.603Z,98915.39
2023-02-18T14:02:25.561Z,98904.60
2023-02-18T14:05:00.680Z,98911.83
2023-02-18T14:07:45.479Z,98903.45
2023-02-18T14:10:20.608Z,98907.84
2023-02-18T14:13:02.171Z,98917.99
2023-02-18T14:15:35.076Z,98916.63
2023-02-18T14:18:19.486Z,98911.52
2023-02-18T14:20:51.612Z,98912.97
2023-02-18T14:23:24.229Z,98911.67
2023-02-18T14:26:19.589Z,98903.73
2023-02-18T14:28:58.040Z,98898.92
2023-02-18T14:31:36.811Z,98900.87
2023-02-18T14:34:24.474Z,98903.59
2023-02-18T14:37:22.489Z,98896.58
2023-02-18T14:40:01.121Z,98904.55
2023-02-18T14:42:50.077Z,98901.88
2023-02-18T14:45:55.755Z,98895.94
2023-02-18T14:49:01.308Z,98897.59
2023-02-18T14:51:31.268Z,98891.41
2023-02-18T14:54:07.282Z,98888.16
2023-02-18T14:56:42.757Z,98879.45
2023-02-18T14:59:14.989Z,98887.95
2023-02-18T15:01:44.934Z,98890.52
2023-02-18T15:04:15.825Z,98906.66
2023-02-18T15:06:45.656Z,98911.57
2023-02-18T15:09:23.094Z,98904.77
2023-02-18T15:11:58.900Z,98906.13
2023-02-18T15:14:31.192Z,98906.66
2023-02-18T15:17:01.376Z,98908.52
2023-02-18T15:19:34.029Z,98912.11
2023-02-18T15:22:04.494Z,98904.02
2023-02-18T15:24:38.554Z,98901.06
2023-02-18T15:27:22.126Z,98892.36
2023-02-18T15:29:53.810Z,98884.96
2023-02-18T15:32:25.974Z,98881.37
2023-02-18T15:35:05.385Z,98879.42
2023-02-18T15:37:35.224Z,98885.70
2023-02-18T15:40:05.514Z,98896.89
2023-02-18T15:42:37.554Z,98906.42
2023-02-18T15:45:23.670Z,98903.70
2023-02-18T15:47:55.829Z,98899.61
2023-02-18T15:50:37.032Z,98911.34
2023-02-18T15:53:14.598Z,98909.38
2023-02-18T15:55:45.401Z,98913.38
2023-02-18T15:58:20.362Z,98915.48
2023-02-18T16:00:54.841Z,98908.13
2023-02-18T16:03:26.547Z,98904.34
2023-02-18T16:06:14.967Z,98892.95
2023-02-18T16:08:44.794Z,98900.27
2023-02-18T16:11:14.957Z,98903.84
2023-02-18T16:13:50.885Z,98914.94
2023-02-18T16:16:26.607Z,98911.09
2023-02-18T16:18:56.630Z,98909.41
2023-02-18T16:21:35.002Z,98910.47
2023-02-18T16:24:04.948Z,98900.87
2023-02-18T16:26:44.072Z,98923.84
2023-02-18T16:29:20.362Z,98911.83
2023-02-18T16:31:50.274Z,98917.28
2023-02-18T16:34:20.168Z,98920.73
2023-02-18T16:37:07.668Z,98923.99
2023-02-18T16:39:37.503Z,98937.28
2023-02-18T16:42:12.104Z,98940.00
2023-02-18T16:44:42.037Z,98926.92
2023-02-18T16:47:13.665Z,98923.37
2023-02-18T16:49:43.575Z,98921.18
2023-02-18T16:52:13.426Z,98923.60
2023-02-18T16:54:43.241Z,98924.64
2023-02-18T16:57:15.803Z,98931.45
2023-02-18T16:59:45.639Z,98923.51
2023-02-18T17:02:20.489Z,98912.30
2023-02-18T17:04:52.438Z,98908.74
2023-02-18T17:07:22.246Z,98910.10
2023-02-18T17:09:52.084Z,98903.83
2023-02-18T17:12:21.965Z,98894.50
2023-02-18T17:14:51.973Z,98879.53
2023-02-18T17:17:23.413Z,98870.53
2023-02-18T17:19:53.282Z,98849.29
2023-02-18T17:22:23.116Z,98835.88
2023-02-18T17:24:52.934Z,98827.22
2023-02-18T17:27:22.827Z,98836.74
2023-02-18T17:29:52.707Z,98841.33
2023-02-18T17:32:22.502Z,98828.25
2023-02-18T17:34:52.402Z,98818.72
2023-02-18T17:37:22.226Z,98818.09
2023-02-18T17:39:52.063Z,98804.81
2023-02-18T17:42:24.366Z,98793.48
2023-02-18T17:44:54.198Z,98796.83
2023-02-18T17:47:24.022Z,98797.95
2023-02-18T17:49:53.904Z,98788.13
2023-02-18T17:52:31.557Z,98790.94
2023-02-18T17:55:01.795Z,98782.77
2023-02-18T17:57:32.941Z,98778.69
2023-02-18T18:00:04.843Z,98758.35
2023-02-18T18:02:34.997Z,98745.65
2023-02-18T18:05:05.056Z,98723.62
2023-02-18T18:07:34.981Z,98725.84
2023-02-18T18:10:05.003Z,98728.03
2023-02-18T18:12:35.065Z,98732.41
2023-02-18T18:15:05.403Z,98731.38
2023-02-18T18:17:35.213Z,98734.93
2023-02-18T18:20:05.141Z,98739.92
2023-02-18T18:22:35.035Z,98734.02
2023-02-18T18:25:06.563Z,98731.09
2023-02-18T18:27:36.576Z,98740.38
2023-02-18T18:30:06.686Z,98746.98
2023-02-18T18:32:36.587Z,98736.67
2023-02-18T18:35:06.630Z,98721.70
2023-02-18T18:37:36.495Z,98712.78
2023-02-18T18:40:06.517Z,98696.77
2023-02-18T18:42:36.434Z,98691.61
2023-02-18T18:45:06.588Z,98693.88
2023-02-18T18:47:36.426Z,98705.39
2023-02-18T18:50:06.449Z,98701.06
2023-02-18T18:52:36.494Z,98685.04
2023-02-18T18:55:06.438Z,98690.48
2023-02-18T18:57:36.374Z,98662.84
2023-02-18T19:00:06.382Z,98662.84
2023-02-18T19:02:36.715Z,98650.09
2023-02-18T19:05:06.801Z,98632.45
2023-02-18T19:07:36.641Z,98610.42
2023-02-18T19:10:06.513Z,98599.23
2023-02-18T19:12:37.773Z,98585.00
2023-02-18T19:15:07.830Z,98585.54
2023-02-18T19:17:37.719Z,98598.09
2023-02-18T19:20:08.714Z,98592.35
2023-02-18T19:22:38.577Z,98593.71
2023-02-18T19:25:08.876Z,98587.52
2023-02-18T19:27:42.403Z,98572.21
2023-02-18T19:30:20.476Z,98563.43
2023-02-18T19:32:50.820Z,98549.23
2023-02-18T19:35:20.758Z,98547.80
2023-02-18T19:37:52.770Z,98539.63
2023-02-18T19:40:24.001Z,98546.19
2023-02-18T19:42:53.830Z,98527.73
2023-02-18T19:45:23.669Z,98534.55
2023-02-18T19:48:01.777Z,98523.58
2023-02-18T19:50:34.701Z,98519.95
2023-02-18T19:53:05.241Z,98516.86
2023-02-18T19:55:35.296Z,98509.73
2023-02-18T19:58:05.252Z,98494.55
2023-02-18T20:00:35.277Z,98497.02
2023-02-18T20:03:07.489Z,98486.98
2023-02-18T20:05:39.070Z,98482.58
2023-02-18T20:08:08.926Z,98467.84
2023-02-18T20:10:39.133Z,98458.78
2023-02-18T20:13:10.215Z,98467.99
2023-02-18T20:15:44.865Z,98481.92
2023-02-18T20:18:14.842Z,98456.34
2023-02-18T20:20:51.715Z,98431.30
2023-02-18T20:23:21.586Z,98398.88
2023-02-18T20:25:51.506Z,98407.26
2023-02-18T20:28:21.476Z,98418.37
2023-02-18T20:30:51.356Z,98405.30
2023-02-18T20:33:21.321Z,98387.05
2023-02-18T20:35:59.162Z,98388.34
2023-02-18T20:38:29.010Z,98374.45
2023-02-18T20:41:00.582Z,98364.16
2023-02-18T20:43:32.407Z,98380.14
2023-02-18T20:46:08.042Z,98370.00
2023-02-18T20:48:38.213Z,98363.20
2023-02-18T20:51:15.407Z,98348.22
2023-02-18T20:53:45.246Z,98348.16
2023-02-18T20:56:15.247Z,98331.06
2023-02-18T20:58:45.104Z,98312.52
2023-02-18T21:01:15.922Z,98311.16
2023-02-18T21:03:46.820Z,98337.27
2023-02-18T21:06:18.651Z,98332.86
2023-02-18T21:08:48.921Z,98337.48
2023-02-18T21:11:20.255Z,98346.19
2023-02-18T21:13:50.502Z,98343.47
2023-02-18T21:16:20.579Z,98381.58
2023-02-18T21:18:50.579Z,98380.47
2023-02-18T21:21:21.867Z,98364.34
2023-02-18T21:23:51.723Z,98355.58
2023-02-18T21:26:23.257Z,98338.42
2023-02-18T21:28:54.386Z,98309.84
2023-02-18T21:31:26.477Z,98293.51
2023-02-18T21:33:58.758Z,98300.02
2023-02-18T21:36:28.709Z,98302.97
2023-02-18T21:38:59.836Z,98313.25
2023-02-18T21:41:29.739Z,98293.08
2023-02-18T21:43:59.582Z,98286.28
2023-02-18T21:46:33.702Z,98272.67
2023-02-18T21:49:06.229Z,98273.49
2023-02-18T21:51:55.692Z,98245.73
2023-02-18T21:54:33.245Z,98245.98
2023-02-18T21:57:04.689Z,98266.09
2023-02-18T21:59:35.191Z,98274.25
2023-02-18T22:02:05.995Z,98284.09
2023-02-18T22:04:36.239Z,98262.89
2023-02-18T22:07:06.100Z,98236.06
2023-02-18T22:09:36.014Z,98221.38
2023-02-18T22:12:06.882Z,98238.84
2023-02-18T22:14:36.732Z,98249.95
2023-02-18T22:17:08.610Z,98277.17
2023-02-18T22:19:38.489Z,98272.62
2023-02-18T22:22:08.351Z,98273.77
2023-02-18T22:24:38.189Z,98277.05
2023-02-18T22:27:08.047Z,98279.84
2023-02-18T22:29:37.888Z,98270.38
2023-02-18T22:32:07.803Z,98274.24
2023-02-18T22:34:37.891Z,98272.13
2023-02-18T22:37:07.738Z,98249.27
2023-02-18T22:39:37.576Z,98225.05
2023-02-18T22:42:07.597Z,98200.86
2023-02-18T22:44:37.332Z,98185.13
2023-02-18T22:47:07.189Z,98159.83
2023-02-18T22:49:37.077Z,98155.80
2023-02-18T22:52:06.941Z,98160.48
2023-02-18T22:54:36.754Z,98162.67
2023-02-18T22:57:06.675Z,98152.38
2023-02-18T22:59:36.843Z,98159.78
2023-02-18T23:02:06.660Z,98174.22
2023-02-18T23:04:36.782Z,98165.29
2023-02-18T23:07:06.760Z,98154.45
2023-02-18T23:09:36.648Z,98136.49
2023-02-18T23:12:06.839Z,98145.80
2023-02-18T23:14:36.667Z,98150.45
2023-02-18T23:17:15.352Z,98126.79
2023-02-18T23:19:46.942Z,98129.74
2023-02-18T23:22:21.048Z,98140.09
2023-02-18T23:24:50.847Z,98128.38
2023-02-18T23:27:20.791Z,98132.47
2023-02-18T23:29:51.031Z,98127.61
2023-02-18T23:32:20.862Z,98108.01
2023-02-18T23:34:52.167Z,98097.11
2023-02-18T23:37:26.572Z,98112.63
2023-02-18T23:39:56.427Z,98124.89
2023-02-18T23:42:26.317Z,98122.39
2023-02-18T23:44:57.079Z,98110.56
2023-02-18T23:47:26.917Z,98099.50
2023-02-18T23:49:56.830Z,98091.61
2023-02-18T23:52:29.415Z,98093.25
2023-02-18T23:54:59.266Z,98094.62
2023-02-18T23:57:33.460Z,98101.14
